Ilford, Canada
Current Conditions -  °F | °C
As of 10:00 PM on Wednesday 17 Dec 2014 (Local Time) from CYGX Reporting Station
Light Snow Light Snow  
Wind Chill: -5°   Ceiling: 900
Heat Index: 10°   Visibility: 15mi
Dew Point:   Wind: 14mph
Humidity: 85%   Direction: 230°SW
Pressure: 30.12"   Gusts: NA
Location:  56.04°N, 95.58°W
Report Text: CYGX 180400Z 23012KT 15SM -SN OVC009 M12/M14 A3012 RMK SC8 SLP216
Loading
Personal Weather Stations






























Interactive Weather Map New forecast layout! Learn more

10-Day Weather Forecast

Advertisements
Track Severe Weather on mobile